createdAt,value
2023-11-30T00:01:23.725Z,16.70
2023-11-30T00:03:26.378Z,16.53
2023-11-30T00:05:29.036Z,14.80
2023-11-30T00:07:31.893Z,14.83
2023-11-30T00:09:34.408Z,16.47
2023-11-30T00:11:36.858Z,17.43
2023-11-30T00:13:39.399Z,16.63
2023-11-30T00:15:43.804Z,15.73
2023-11-30T00:17:47.100Z,14.97
2023-11-30T00:19:50.062Z,15.53
2023-11-30T00:21:52.256Z,15.93
2023-11-30T00:23:55.255Z,14.13
2023-11-30T00:25:57.841Z,15.63
2023-11-30T00:28:01.329Z,16.20
2023-11-30T00:30:04.162Z,12.87
2023-11-30T00:32:07.163Z,13.27
2023-11-30T00:34:09.790Z,15.30
2023-11-30T00:36:12.779Z,14.87
2023-11-30T00:38:15.305Z,14.40
2023-11-30T00:40:17.732Z,16.50
2023-11-30T00:42:21.069Z,13.67
2023-11-30T00:44:23.980Z,14.77
2023-11-30T00:46:26.648Z,15.10
2023-11-30T00:48:29.534Z,12.87
2023-11-30T00:50:32.052Z,15.33
2023-11-30T00:52:34.619Z,15.17
2023-11-30T00:54:37.263Z,13.60
2023-11-30T00:56:39.725Z,13.57
2023-11-30T00:58:42.227Z,12.13
2023-11-30T01:00:44.605Z,14.70
2023-11-30T01:02:47.341Z,13.53
2023-11-30T01:04:50.196Z,14.03
2023-11-30T01:06:52.738Z,13.40
2023-11-30T01:08:55.606Z,12.87
2023-11-30T01:10:58.266Z,13.93
2023-11-30T01:13:01.053Z,14.60
2023-11-30T01:15:04.020Z,11.67
2023-11-30T01:17:06.489Z,12.73
2023-11-30T01:19:09.256Z,15.07
2023-11-30T01:21:12.003Z,14.77
2023-11-30T01:23:15.033Z,13.07
2023-11-30T01:25:18.768Z,12.63
2023-11-30T01:27:21.394Z,12.63
2023-11-30T01:29:24.212Z,12.17
2023-11-30T01:31:26.465Z,13.00
2023-11-30T01:33:29.413Z,14.87
2023-11-30T01:35:32.356Z,11.87
2023-11-30T01:37:35.230Z,12.40
2023-11-30T01:39:37.498Z,12.53
2023-11-30T01:41:40.329Z,10.73
2023-11-30T01:43:42.863Z,12.83
2023-11-30T01:45:45.743Z,10.87
2023-11-30T01:47:48.414Z,11.00
2023-11-30T01:49:51.554Z,12.70
2023-11-30T01:51:53.800Z,12.93
2023-11-30T01:53:57.702Z,11.20
2023-11-30T01:56:00.485Z,12.93
2023-11-30T01:58:05.212Z,11.17
2023-11-30T02:00:08.178Z,13.00
2023-11-30T02:02:11.108Z,12.23
2023-11-30T02:04:16.442Z,11.70
2023-11-30T02:06:20.400Z,10.27
2023-11-30T02:08:23.053Z,10.67
2023-11-30T02:10:26.194Z,11.37
2023-11-30T02:12:28.481Z,10.70
2023-11-30T02:14:33.435Z,12.03
2023-11-30T02:16:36.130Z,9.70
2023-11-30T02:18:38.994Z,10.73
2023-11-30T02:20:41.590Z,10.17
2023-11-30T02:22:44.401Z,9.37
2023-11-30T02:24:46.576Z,9.87
2023-11-30T02:26:49.464Z,9.47
2023-11-30T02:28:51.679Z,10.17
2023-11-30T02:30:54.520Z,10.23
2023-11-30T02:32:56.697Z,9.03
2023-11-30T02:34:59.575Z,8.60
2023-11-30T02:37:02.187Z,10.23
2023-11-30T02:39:05.257Z,10.90
2023-11-30T02:41:07.920Z,9.23
2023-11-30T02:43:10.738Z,10.50
2023-11-30T02:45:13.407Z,9.37
2023-11-30T02:47:15.948Z,9.40
2023-11-30T02:49:19.379Z,8.57
2023-11-30T02:51:21.841Z,8.73
2023-11-30T02:53:24.472Z,9.40
2023-11-30T02:55:26.981Z,9.43
2023-11-30T02:57:29.643Z,8.43
2023-11-30T02:59:33.159Z,9.67
2023-11-30T03:01:35.872Z,10.37
2023-11-30T03:03:38.360Z,9.17
2023-11-30T03:05:41.130Z,10.23
2023-11-30T03:07:43.509Z,9.43
2023-11-30T03:09:46.093Z,10.50
2023-11-30T03:11:48.547Z,9.10
2023-11-30T03:13:51.072Z,9.10
2023-11-30T03:15:53.935Z,8.80
2023-11-30T03:17:56.666Z,10.10
2023-11-30T03:19:59.725Z,8.60
2023-11-30T03:22:02.498Z,8.63
2023-11-30T03:24:05.961Z,9.67
2023-11-30T03:26:08.478Z,8.37
2023-11-30T03:28:11.340Z,10.20
2023-11-30T03:30:14.084Z,8.70
2023-11-30T03:32:17.003Z,8.93
2023-11-30T03:34:19.694Z,8.90
2023-11-30T03:36:22.165Z,9.53
2023-11-30T03:38:24.853Z,8.23
2023-11-30T03:40:27.674Z,9.07
2023-11-30T03:42:30.333Z,8.47
2023-11-30T03:44:33.265Z,8.80
2023-11-30T03:46:36.020Z,7.67
2023-11-30T03:48:38.962Z,7.57
2023-11-30T03:50:41.266Z,8.30
2023-11-30T03:52:43.724Z,7.77
2023-11-30T03:54:46.282Z,8.33
2023-11-30T03:56:49.112Z,8.00
2023-11-30T03:58:51.319Z,7.97
2023-11-30T04:00:53.754Z,7.27
2023-11-30T04:02:55.954Z,8.80
2023-11-30T04:04:58.982Z,7.83
2023-11-30T04:07:01.248Z,8.60
2023-11-30T04:09:04.805Z,7.83
2023-11-30T04:11:07.635Z,8.07
2023-11-30T04:13:10.862Z,7.43
2023-11-30T04:15:13.389Z,6.90
2023-11-30T04:17:16.342Z,8.07
2023-11-30T04:19:18.547Z,8.17
2023-11-30T04:21:22.426Z,7.37
2023-11-30T04:23:25.041Z,7.30
2023-11-30T04:25:28.071Z,7.80
2023-11-30T04:27:30.699Z,7.93
2023-11-30T04:29:33.521Z,6.93
2023-11-30T04:31:36.102Z,7.27
2023-11-30T04:33:39.054Z,7.63
2023-11-30T04:35:41.590Z,8.27
2023-11-30T04:37:44.468Z,7.40
2023-11-30T04:39:46.714Z,7.23
2023-11-30T04:41:51.874Z,8.27
2023-11-30T04:43:54.507Z,7.50
2023-11-30T04:45:56.891Z,7.13
2023-11-30T04:47:59.740Z,6.87
2023-11-30T04:50:02.459Z,6.87
2023-11-30T04:52:05.144Z,7.13
2023-11-30T04:54:08.080Z,7.23
2023-11-30T04:56:10.929Z,8.17
2023-11-30T04:58:13.960Z,7.70
2023-11-30T05:00:16.743Z,7.13
2023-11-30T05:02:19.703Z,7.17
2023-11-30T05:04:22.386Z,7.03
2023-11-30T05:06:25.432Z,6.50
2023-11-30T05:08:27.506Z,6.77
2023-11-30T05:10:30.333Z,7.60
2023-11-30T05:12:32.605Z,6.93
2023-11-30T05:14:35.684Z,6.87
2023-11-30T05:16:37.868Z,5.73
2023-11-30T05:18:40.647Z,6.40
2023-11-30T05:20:43.210Z,6.67
2023-11-30T05:22:46.053Z,7.03
2023-11-30T05:24:48.204Z,6.30
2023-11-30T05:26:53.422Z,7.90
2023-11-30T05:28:56.326Z,6.67
2023-11-30T05:30:59.276Z,7.40
2023-11-30T05:33:01.906Z,6.57
2023-11-30T05:35:06.330Z,6.50
2023-11-30T05:37:08.602Z,6.73
2023-11-30T05:39:11.638Z,6.80
2023-11-30T05:41:13.870Z,6.70
2023-11-30T05:43:17.182Z,7.03
2023-11-30T05:45:19.767Z,6.30
2023-11-30T05:47:23.125Z,8.07
2023-11-30T05:49:25.707Z,7.03
2023-11-30T05:51:28.880Z,7.67
2023-11-30T05:53:31.966Z,7.00
2023-11-30T05:55:34.824Z,7.17
2023-11-30T05:57:37.379Z,7.40
2023-11-30T05:59:40.090Z,6.90
2023-11-30T06:01:42.761Z,7.60
2023-11-30T06:03:46.249Z,6.63
2023-11-30T06:05:49.040Z,6.23
2023-11-30T06:07:51.870Z,7.07
2023-11-30T06:09:54.691Z,6.80
2023-11-30T06:11:57.636Z,7.17
2023-11-30T06:14:01.713Z,7.90
2023-11-30T06:16:05.180Z,6.13
2023-11-30T06:18:07.692Z,8.20
2023-11-30T06:20:11.788Z,7.37
2023-11-30T06:22:14.622Z,6.57
2023-11-30T06:24:20.204Z,7.50
2023-11-30T06:26:22.375Z,7.70
2023-11-30T06:28:25.058Z,6.77
2023-11-30T06:30:27.550Z,7.53
2023-11-30T06:32:30.402Z,7.03
2023-11-30T06:34:34.437Z,7.00
2023-11-30T06:36:37.656Z,6.50
2023-11-30T06:38:42.930Z,7.47
2023-11-30T06:40:45.901Z,7.30
2023-11-30T06:42:50.257Z,7.57
2023-11-30T06:44:53.541Z,8.07
2023-11-30T06:46:56.222Z,7.07
2023-11-30T06:48:59.150Z,7.67
2023-11-30T06:51:01.418Z,8.27
2023-11-30T06:53:04.945Z,7.83
2023-11-30T06:55:07.309Z,7.17
2023-11-30T06:57:11.450Z,7.83
2023-11-30T06:59:13.673Z,7.03
2023-11-30T07:01:17.376Z,6.93
2023-11-30T07:03:19.787Z,7.03
2023-11-30T07:05:22.337Z,7.43
2023-11-30T07:07:31.479Z,7.07
2023-11-30T07:09:38.641Z,7.27
2023-11-30T07:11:41.121Z,6.33
2023-11-30T07:13:43.837Z,7.97
2023-11-30T07:15:46.392Z,6.97
2023-11-30T07:17:48.952Z,6.90
2023-11-30T07:19:54.750Z,6.95
2023-11-30T07:21:57.854Z,6.78
2023-11-30T07:24:01.041Z,6.70
2023-11-30T07:26:10.137Z,7.20
2023-11-30T07:28:12.715Z,6.25
2023-11-30T07:30:15.845Z,7.50
2023-11-30T07:32:18.069Z,7.05
2023-11-30T07:34:20.872Z,6.78
2023-11-30T07:36:23.441Z,6.63
2023-11-30T07:38:26.323Z,7.37
2023-11-30T07:40:28.525Z,7.37
2023-11-30T07:42:35.597Z,6.50
2023-11-30T07:44:40.372Z,6.60
2023-11-30T07:46:43.212Z,5.70
2023-11-30T07:48:45.849Z,6.87
2023-11-30T07:50:48.342Z,6.10
2023-11-30T07:52:50.976Z,7.13
2023-11-30T07:54:53.935Z,7.83
2023-11-30T07:56:56.601Z,7.13
2023-11-30T07:58:59.466Z,8.33
2023-11-30T08:01:02.475Z,6.97
2023-11-30T08:03:05.023Z,7.50
2023-11-30T08:05:07.543Z,7.23
2023-11-30T08:07:10.680Z,6.87
2023-11-30T08:09:14.963Z,6.30
2023-11-30T08:11:17.851Z,7.67
2023-11-30T08:13:21.252Z,7.17
2023-11-30T08:15:24.252Z,6.93
2023-11-30T08:17:27.067Z,6.87
2023-11-30T08:19:30.029Z,7.47
2023-11-30T08:21:32.309Z,5.90
2023-11-30T08:23:36.675Z,7.03
2023-11-30T08:25:40.182Z,5.57
2023-11-30T08:27:46.914Z,7.10
2023-11-30T08:29:51.670Z,7.13
2023-11-30T08:31:54.698Z,7.03
2023-11-30T08:33:57.849Z,6.70
2023-11-30T08:36:00.901Z,7.37
2023-11-30T08:38:03.722Z,6.17
2023-11-30T08:40:08.853Z,7.13
2023-11-30T08:42:14.126Z,7.13
2023-11-30T08:44:18.828Z,6.40
2023-11-30T08:46:21.923Z,7.53
2023-11-30T08:48:24.981Z,6.67
2023-11-30T08:50:27.545Z,8.27
2023-11-30T08:52:30.469Z,7.73
2023-11-30T08:54:32.974Z,6.80
2023-11-30T08:56:35.830Z,7.03
2023-11-30T08:58:40.939Z,9.00
2023-11-30T09:00:44.454Z,7.63
2023-11-30T09:02:47.702Z,7.67
2023-11-30T09:04:50.919Z,7.67
2023-11-30T09:06:53.421Z,7.03
2023-11-30T09:08:57.063Z,8.40
2023-11-30T09:10:59.556Z,8.00
2023-11-30T09:13:04.371Z,8.43
2023-11-30T09:15:10.327Z,7.53
2023-11-30T09:17:13.679Z,7.70
2023-11-30T09:19:16.343Z,7.47
2023-11-30T09:21:19.509Z,7.90
2023-11-30T09:23:21.738Z,8.00
2023-11-30T09:25:25.048Z,7.93
2023-11-30T09:27:27.411Z,8.07
2023-11-30T09:29:30.802Z,8.40
2023-11-30T09:31:33.549Z,7.20
2023-11-30T09:33:36.479Z,8.37
2023-11-30T09:35:38.728Z,7.53
2023-11-30T09:37:41.416Z,7.27
2023-11-30T09:39:45.799Z,7.10
2023-11-30T09:41:48.724Z,9.10
2023-11-30T09:43:51.431Z,7.97
2023-11-30T09:45:56.013Z,7.73
2023-11-30T09:47:58.425Z,6.43
2023-11-30T09:50:04.600Z,7.27
2023-11-30T09:52:08.049Z,7.13
2023-11-30T09:54:11.369Z,6.67
2023-11-30T09:56:13.648Z,8.40
2023-11-30T09:58:16.677Z,6.77
2023-11-30T10:00:19.488Z,7.00
2023-11-30T10:02:24.658Z,6.77
2023-11-30T10:04:27.006Z,6.30
2023-11-30T10:06:29.806Z,8.07
2023-11-30T10:08:32.069Z,7.87
2023-11-30T10:10:35.041Z,8.10
2023-11-30T10:12:37.244Z,7.50
2023-11-30T10:14:39.825Z,7.43
2023-11-30T10:16:42.438Z,7.30
2023-11-30T10:18:45.442Z,7.33
2023-11-30T10:20:48.119Z,7.40
2023-11-30T10:22:51.495Z,8.20
2023-11-30T10:24:54.133Z,6.50
2023-11-30T10:27:00.752Z,7.67
2023-11-30T10:29:06.014Z,7.43
2023-11-30T10:31:10.286Z,8.00
2023-11-30T10:33:16.946Z,7.40
2023-11-30T10:35:21.536Z,7.70
2023-11-30T10:37:27.493Z,7.27
2023-11-30T10:39:36.995Z,7.57
2023-11-30T10:41:53.503Z,6.97
2023-11-30T10:43:57.540Z,8.00
2023-11-30T10:46:00.577Z,8.40
2023-11-30T10:48:04.137Z,7.23
2023-11-30T10:50:07.563Z,7.53
2023-11-30T10:52:10.682Z,7.43
2023-11-30T10:54:27.704Z,7.00
2023-11-30T10:56:30.839Z,6.87
2023-11-30T10:58:33.738Z,7.57
2023-11-30T11:00:36.421Z,7.67
2023-11-30T11:02:39.913Z,7.30
2023-11-30T11:04:43.819Z,6.93
2023-11-30T11:06:47.592Z,8.07
2023-11-30T11:09:10.241Z,7.37
2023-11-30T11:11:15.595Z,7.60
2023-11-30T11:13:25.942Z,7.67
2023-11-30T11:17:33.083Z,7.37
2023-11-30T11:19:39.886Z,8.50
2023-11-30T11:21:42.528Z,6.60
2023-11-30T11:23:45.183Z,7.63
2023-11-30T11:25:48.237Z,7.03
2023-11-30T11:27:50.496Z,7.70
2023-11-30T11:29:52.899Z,7.47
2023-11-30T11:31:58.028Z,8.07
2023-11-30T11:34:00.541Z,8.23
2023-11-30T11:36:03.528Z,7.90
2023-11-30T11:38:07.612Z,7.00
2023-11-30T11:40:10.248Z,7.00
2023-11-30T11:42:13.240Z,7.27
2023-11-30T11:44:16.083Z,8.27
2023-11-30T11:46:19.227Z,6.80
2023-11-30T11:48:22.455Z,7.27
2023-11-30T11:50:25.330Z,7.80
2023-11-30T11:52:28.946Z,7.27
2023-11-30T11:54:31.618Z,6.77
2023-11-30T11:56:33.934Z,6.30
2023-11-30T11:58:36.517Z,6.73
2023-11-30T12:00:38.667Z,7.70
2023-11-30T12:02:41.497Z,6.23
2023-11-30T12:04:44.174Z,6.83
2023-11-30T12:06:46.796Z,6.63
2023-11-30T12:08:49.544Z,6.43
2023-11-30T12:10:53.161Z,6.93
2023-11-30T12:12:55.876Z,7.37
2023-11-30T12:14:58.722Z,6.67
2023-11-30T12:17:01.273Z,6.80
2023-11-30T12:19:04.488Z,6.97
2023-11-30T12:21:06.900Z,6.53
2023-11-30T12:23:09.875Z,7.87
2023-11-30T12:25:12.456Z,6.37
2023-11-30T12:27:15.306Z,7.87
2023-11-30T12:29:17.441Z,7.50
2023-11-30T12:31:19.893Z,7.90
2023-11-30T12:33:25.142Z,6.57
2023-11-30T12:35:27.605Z,7.27
2023-11-30T12:37:30.146Z,6.83
2023-11-30T12:39:32.605Z,7.20
2023-11-30T12:41:35.165Z,7.60
2023-11-30T12:43:37.706Z,6.90
2023-11-30T12:45:40.439Z,6.57
2023-11-30T12:47:43.298Z,7.73
2023-11-30T12:49:48.338Z,7.13
2023-11-30T12:51:51.018Z,6.93
2023-11-30T12:53:53.862Z,7.50
2023-11-30T12:55:56.480Z,7.67
2023-11-30T12:57:58.634Z,7.80
2023-11-30T13:00:02.238Z,8.03
2023-11-30T13:02:05.073Z,8.57
2023-11-30T13:04:07.796Z,7.00
2023-11-30T13:06:11.277Z,8.50
2023-11-30T13:08:13.828Z,6.63
2023-11-30T13:10:16.358Z,7.37
2023-11-30T13:12:18.943Z,7.30
2023-11-30T13:14:21.162Z,7.20
2023-11-30T13:16:24.562Z,7.77
2023-11-30T13:18:27.215Z,7.47
2023-11-30T13:20:30.110Z,8.53
2023-11-30T13:22:32.572Z,7.13
2023-11-30T13:24:35.417Z,8.13
2023-11-30T13:26:37.592Z,8.73
2023-11-30T13:28:47.484Z,6.70
2023-11-30T13:30:52.839Z,8.07
2023-11-30T13:32:57.021Z,7.67
2023-11-30T13:34:59.211Z,7.17
2023-11-30T13:37:01.855Z,7.97
2023-11-30T13:39:06.324Z,8.23
2023-11-30T13:41:09.464Z,8.97
2023-11-30T13:43:12.243Z,9.03
2023-11-30T13:45:15.436Z,9.20
2023-11-30T13:47:18.369Z,9.40
2023-11-30T13:49:21.648Z,9.77
2023-11-30T13:51:23.998Z,10.80
2023-11-30T13:53:28.253Z,9.30
2023-11-30T13:55:30.996Z,9.33
2023-11-30T13:57:34.105Z,9.43
2023-11-30T13:59:36.985Z,9.40
2023-11-30T14:01:40.505Z,9.50
2023-11-30T14:03:44.299Z,9.67
2023-11-30T14:05:47.574Z,9.10
2023-11-30T14:07:49.840Z,9.00
2023-11-30T14:09:52.793Z,11.10
2023-11-30T14:11:56.123Z,9.60
2023-11-30T14:13:59.144Z,8.93
2023-11-30T14:16:04.106Z,10.03
2023-11-30T14:18:06.734Z,9.67
2023-11-30T14:20:10.579Z,9.27
2023-11-30T14:22:13.279Z,11.40
2023-11-30T14:24:16.904Z,10.63
2023-11-30T14:26:19.606Z,10.00
2023-11-30T14:28:22.801Z,12.47
2023-11-30T14:30:26.331Z,14.13
2023-11-30T14:32:29.177Z,13.33
2023-11-30T14:34:31.709Z,12.60
2023-11-30T14:36:35.132Z,13.83
2023-11-30T14:38:38.121Z,13.73
2023-11-30T14:40:40.344Z,13.00
2023-11-30T14:42:43.476Z,13.50
2023-11-30T14:44:45.739Z,13.37
2023-11-30T14:46:48.341Z,13.67
2023-11-30T14:48:50.969Z,14.17
2023-11-30T14:50:56.032Z,12.43
2023-11-30T14:52:58.527Z,12.63
2023-11-30T14:55:01.542Z,11.43
2023-11-30T14:57:07.498Z,11.70
2023-11-30T14:59:10.191Z,11.40
2023-11-30T15:01:14.758Z,12.27
2023-11-30T15:03:17.437Z,12.50
2023-11-30T15:05:20.082Z,13.27
2023-11-30T15:07:24.411Z,11.80
2023-11-30T15:09:28.246Z,12.33
2023-11-30T15:11:31.189Z,12.57
2023-11-30T15:13:33.844Z,12.27
2023-11-30T15:15:36.710Z,11.20
2023-11-30T15:17:39.228Z,13.20
2023-11-30T15:19:41.719Z,11.80
2023-11-30T15:21:45.090Z,11.00
2023-11-30T15:23:47.962Z,11.33
2023-11-30T15:25:50.239Z,10.63
2023-11-30T15:27:52.802Z,10.37
2023-11-30T15:29:55.119Z,10.47
2023-11-30T15:31:58.222Z,13.37
2023-11-30T15:34:00.819Z,12.03
2023-11-30T15:36:06.138Z,13.60
2023-11-30T15:38:09.338Z,12.53
2023-11-30T15:40:12.695Z,12.83
2023-11-30T15:42:15.486Z,14.00
2023-11-30T15:44:18.630Z,12.00
2023-11-30T15:46:20.860Z,13.60
2023-11-30T15:48:23.895Z,11.40
2023-11-30T15:50:26.601Z,11.40
2023-11-30T15:52:29.014Z,12.10
2023-11-30T15:54:31.352Z,12.13
2023-11-30T15:56:34.083Z,11.90
2023-11-30T15:58:40.374Z,11.00
2023-11-30T16:00:42.992Z,9.97
2023-11-30T16:02:49.857Z,10.47
2023-11-30T16:04:52.537Z,11.17
2023-11-30T16:06:54.703Z,10.43
2023-11-30T16:08:57.257Z,11.43
2023-11-30T16:10:59.487Z,10.03
2023-11-30T16:13:02.883Z,10.77
2023-11-30T16:15:06.903Z,10.73
2023-11-30T16:17:09.510Z,11.10
2023-11-30T16:19:11.649Z,9.10
2023-11-30T16:21:18.569Z,10.03
2023-11-30T16:23:20.875Z,11.33
2023-11-30T16:25:23.389Z,10.50
2023-11-30T16:27:26.929Z,10.37
2023-11-30T16:29:30.675Z,12.00
2023-11-30T16:31:32.910Z,11.37
2023-11-30T16:33:35.946Z,11.67
2023-11-30T16:35:38.260Z,10.90
2023-11-30T16:37:41.187Z,12.30
2023-11-30T16:39:43.761Z,11.13
2023-11-30T16:41:46.835Z,10.73
2023-11-30T16:43:49.043Z,12.33
2023-11-30T16:45:52.184Z,11.40
2023-11-30T16:47:55.426Z,12.90
2023-11-30T16:49:58.320Z,9.67
2023-11-30T16:52:00.968Z,12.03
2023-11-30T16:54:04.218Z,11.53
2023-11-30T16:56:06.856Z,11.10
2023-11-30T16:58:09.810Z,10.70
2023-11-30T17:00:12.568Z,9.53
2023-11-30T17:02:15.739Z,10.13
2023-11-30T17:04:17.973Z,11.07
2023-11-30T17:06:20.835Z,11.40
2023-11-30T17:08:23.538Z,10.27
2023-11-30T17:10:26.108Z,10.90
2023-11-30T17:12:28.278Z,11.20
2023-11-30T17:14:31.289Z,10.77
2023-11-30T17:16:33.466Z,10.80
2023-11-30T17:18:36.751Z,10.37
2023-11-30T17:20:39.050Z,9.67
2023-11-30T17:22:42.996Z,11.27
2023-11-30T17:24:45.568Z,11.63
2023-11-30T17:26:48.624Z,11.40
2023-11-30T17:28:51.144Z,10.20
2023-11-30T17:30:56.341Z,11.30
2023-11-30T17:32:58.916Z,9.87
2023-11-30T17:35:02.027Z,12.93
2023-11-30T17:37:04.833Z,12.17
2023-11-30T17:39:07.299Z,10.93
2023-11-30T17:41:09.653Z,11.50
2023-11-30T17:43:15.006Z,11.27
2023-11-30T17:45:18.403Z,12.50
2023-11-30T17:47:21.442Z,11.33
2023-11-30T17:49:24.229Z,12.67
2023-11-30T17:51:26.845Z,12.70
2023-11-30T17:53:29.410Z,9.37
2023-11-30T17:55:34.116Z,10.67
2023-11-30T17:57:36.753Z,10.17
2023-11-30T17:59:39.712Z,10.10
2023-11-30T18:01:41.991Z,10.70
2023-11-30T18:03:44.624Z,11.57
2023-11-30T18:05:47.009Z,11.90
2023-11-30T18:07:50.026Z,10.90
2023-11-30T18:09:52.372Z,11.90
2023-11-30T18:11:55.327Z,11.67
2023-11-30T18:13:57.671Z,9.57
2023-11-30T18:16:03.026Z,12.23
2023-11-30T18:18:06.214Z,10.30
2023-11-30T18:20:09.076Z,11.33
2023-11-30T18:22:11.341Z,12.47
2023-11-30T18:24:14.543Z,13.33
2023-11-30T18:26:16.818Z,12.20
2023-11-30T18:28:19.727Z,11.83
2023-11-30T18:30:21.905Z,12.00
2023-11-30T18:32:24.466Z,11.87
2023-11-30T18:34:26.843Z,11.90
2023-11-30T18:36:29.444Z,12.83
2023-11-30T18:38:40.348Z,12.33
2023-11-30T18:40:50.111Z,12.97
2023-11-30T18:42:53.737Z,12.47
2023-11-30T18:44:56.679Z,12.67
2023-11-30T18:46:59.374Z,11.80
2023-11-30T18:49:04.442Z,12.63
2023-11-30T18:51:07.817Z,11.23
2023-11-30T18:53:10.941Z,12.03
2023-11-30T18:55:13.118Z,11.63
2023-11-30T18:57:16.075Z,11.30
2023-11-30T18:59:18.870Z,10.20
2023-11-30T19:01:21.525Z,11.60
2023-11-30T19:03:25.219Z,10.93
2023-11-30T19:05:27.931Z,12.70
2023-11-30T19:07:31.467Z,11.10
2023-11-30T19:09:34.475Z,10.87
2023-11-30T19:11:36.668Z,10.53
2023-11-30T19:13:40.367Z,11.77
2023-11-30T19:15:43.523Z,10.43
2023-11-30T19:17:49.728Z,9.50
2023-11-30T19:19:53.227Z,10.73
2023-11-30T19:21:55.930Z,10.20
2023-11-30T19:23:58.657Z,11.07
2023-11-30T19:26:01.638Z,11.37
2023-11-30T19:28:04.573Z,11.60
2023-11-30T19:30:07.850Z,12.23
2023-11-30T19:32:10.404Z,10.50
2023-11-30T19:34:13.485Z,10.13
2023-11-30T19:36:15.835Z,11.93
2023-11-30T19:38:19.328Z,9.87
2023-11-30T19:40:21.924Z,11.70
2023-11-30T19:42:25.357Z,10.27
2023-11-30T19:44:27.577Z,9.97
2023-11-30T19:46:31.460Z,10.93
2023-11-30T19:48:34.736Z,10.67
2023-11-30T19:50:37.458Z,11.83
2023-11-30T19:52:41.446Z,11.57
2023-11-30T19:54:44.136Z,11.30
2023-11-30T19:56:46.448Z,11.33
2023-11-30T19:58:49.325Z,11.60
2023-11-30T20:00:52.604Z,12.43
2023-11-30T20:02:56.530Z,11.83
2023-11-30T20:04:58.777Z,12.07
2023-11-30T20:07:01.422Z,12.37
2023-11-30T20:09:04.176Z,13.27
2023-11-30T20:11:07.226Z,11.80
2023-11-30T20:13:09.566Z,11.63
2023-11-30T20:15:12.364Z,12.60
2023-11-30T20:17:14.729Z,13.50
2023-11-30T20:19:17.304Z,12.50
2023-11-30T20:21:22.261Z,13.53
2023-11-30T20:23:25.570Z,13.97
2023-11-30T20:25:27.769Z,12.73
2023-11-30T20:27:30.302Z,12.67
2023-11-30T20:29:32.836Z,13.47
2023-11-30T20:31:35.491Z,13.67
2023-11-30T20:33:37.864Z,13.30
2023-11-30T20:35:40.822Z,13.83
2023-11-30T20:37:43.247Z,13.67
2023-11-30T20:39:48.762Z,14.53
2023-11-30T20:41:52.483Z,15.77
2023-11-30T20:43:57.677Z,14.47
2023-11-30T20:46:00.340Z,14.83
2023-11-30T20:48:03.595Z,17.33
2023-11-30T20:50:06.446Z,20.00
2023-11-30T20:52:09.167Z,19.77
2023-11-30T20:54:11.851Z,21.60
2023-11-30T20:56:15.092Z,24.80
2023-11-30T20:58:17.410Z,23.57
2023-11-30T21:00:20.915Z,26.50
2023-11-30T21:02:24.323Z,21.93
2023-11-30T21:04:28.569Z,24.80
2023-11-30T21:06:31.736Z,24.93
2023-11-30T21:08:35.263Z,27.07
2023-11-30T21:10:38.583Z,28.87
2023-11-30T21:12:41.216Z,30.57
2023-11-30T21:14:44.443Z,28.07
2023-11-30T21:16:50.200Z,27.83
2023-11-30T21:18:52.926Z,25.70
2023-11-30T21:20:55.989Z,25.97
2023-11-30T21:22:59.208Z,27.97
2023-11-30T21:25:03.178Z,27.70
2023-11-30T21:27:06.364Z,31.47
2023-11-30T21:29:11.901Z,29.33
2023-11-30T21:31:16.860Z,35.50
2023-11-30T21:33:20.953Z,32.63
2023-11-30T21:35:23.332Z,33.90
2023-11-30T21:37:26.033Z,33.47
2023-11-30T21:39:31.479Z,34.03
2023-11-30T21:41:34.492Z,32.80
2023-11-30T21:43:37.939Z,29.10
2023-11-30T21:45:41.753Z,29.90
2023-11-30T21:47:44.363Z,30.47
2023-11-30T21:49:49.910Z,35.20
2023-11-30T21:51:52.824Z,33.20
2023-11-30T21:53:56.802Z,33.23
2023-11-30T21:55:59.117Z,37.83
2023-11-30T21:58:02.548Z,35.53
2023-11-30T22:00:05.654Z,32.40
2023-11-30T22:02:17.698Z,31.47
2023-11-30T22:04:20.598Z,31.43
2023-11-30T22:06:23.569Z,35.90
2023-11-30T22:08:28.565Z,29.47
2023-11-30T22:10:31.544Z,33.83
2023-11-30T22:12:35.087Z,30.20
2023-11-30T22:14:37.644Z,30.33
2023-11-30T22:16:41.638Z,30.97
2023-11-30T22:18:44.485Z,30.23
2023-11-30T22:20:47.242Z,27.43
2023-11-30T22:22:50.174Z,24.60
2023-11-30T22:24:52.407Z,27.53
2023-11-30T22:26:55.363Z,27.50
2023-11-30T22:28:57.622Z,26.00
2023-11-30T22:31:00.379Z,27.17
2023-11-30T22:33:02.703Z,26.57
2023-11-30T22:35:06.368Z,29.43
2023-11-30T22:37:10.607Z,27.03
2023-11-30T22:39:13.734Z,27.27
2023-11-30T22:41:16.591Z,31.80
2023-11-30T22:43:20.415Z,27.57
2023-11-30T22:45:23.413Z,23.87
2023-11-30T22:47:26.379Z,24.67
2023-11-30T22:49:30.674Z,24.30
2023-11-30T22:51:34.226Z,24.37
2023-11-30T22:53:36.980Z,22.57
2023-11-30T22:55:39.837Z,24.00
2023-11-30T22:57:42.564Z,23.03
2023-11-30T22:59:45.417Z,25.10
2023-11-30T23:01:48.984Z,24.90
2023-11-30T23:03:53.495Z,24.30
2023-11-30T23:05:56.907Z,19.77
2023-11-30T23:08:00.421Z,20.00
2023-11-30T23:10:02.765Z,22.47
2023-11-30T23:12:06.415Z,23.20
2023-11-30T23:14:09.869Z,23.67
2023-11-30T23:16:12.968Z,25.80
2023-11-30T23:18:18.013Z,22.40
2023-11-30T23:20:25.490Z,24.10
2023-11-30T23:22:29.879Z,31.30
2023-11-30T23:24:34.111Z,30.67
2023-11-30T23:26:37.122Z,35.83
2023-11-30T23:28:40.468Z,34.93
2023-11-30T23:30:43.355Z,37.37
2023-11-30T23:32:49.795Z,39.50
2023-11-30T23:34:52.290Z,42.90
2023-11-30T23:36:54.861Z,40.83
2023-11-30T23:38:58.453Z,41.07
2023-11-30T23:41:01.513Z,42.33
2023-11-30T23:43:04.305Z,38.33
2023-11-30T23:45:08.351Z,39.57
2023-11-30T23:47:11.024Z,37.40
2023-11-30T23:49:13.666Z,37.43
2023-11-30T23:51:16.284Z,39.03
2023-11-30T23:53:18.781Z,40.80
2023-11-30T23:55:21.541Z,37.10
2023-11-30T23:57:24.438Z,34.10
2023-11-30T23:59:27.074Z,34.33
